KMMK Airport (Meriden Markham Muni) Information

FAA: MMK - ICAO: KMMK

KMMK Airport Location

State Connecticut
County New Haven
City Meriden
KMMK Airport is 3 miles southwest of Meriden, CT.
Latitude 41-30-31.3730N
Longitude 072-49-46.1220W
Elevation 103ft

KMMK Airport METARs

METAR KMMK 182353Z AUTO 32016G19KT 10SM CLR 10/02 A2988 RMK AO2 SLP120 60005 T01000017 10139 20100 52024
Altimeter 29.88"
Temperature 10.0°C (50.0°F)
Wind 320° at 16KT with gusts to 19KT
Clouds Skies are clear.
Visibility 10.0mi
Time observed: 2021-10-18T23:53:00Z

KMMK Airport Details

Status Operational
Activation April 1940
Ownership Public
Usage Public
Chart NEW YORK
ATC on-site No
Beacon schedule sunset-sunrise
Beacon color clear green

KMMK Airport Contacts

Owner CITY OF MERIDEN
Owner address WILMA PETRO, PURCHASING, CITY HALL; 142 E MAIN ST, MERIDEN, CT 06450
Owner phone (203) 630-4115
Manager MARK DITOMASSO
Manager address 141 OGDEN ROAD, COLCHESTER, CT 06415
Manager phone (860) 883-4272

KMMK Airport (Meriden Markham Muni) Radio Frequencies

KMMK (Airport) Radio Frequencies

UNICOM 123.05
Common traffic advisory frequency (CTAF) 123.05